createdAt,value
2018-06-30T00:00:21.030Z,19.70
2018-06-30T00:05:50.661Z,19.60
2018-06-30T00:08:19.822Z,19.70
2018-06-30T00:10:48.977Z,19.70
2018-06-30T00:13:18.162Z,19.50
2018-06-30T00:15:47.423Z,19.50
2018-06-30T00:18:16.633Z,19.60
2018-06-30T00:20:45.822Z,19.60
2018-06-30T00:23:24.928Z,19.40
2018-06-30T00:25:54.111Z,19.50
2018-06-30T00:28:23.261Z,19.50
2018-06-30T00:33:52.997Z,19.50
2018-06-30T00:36:22.231Z,19.40
2018-06-30T00:38:51.425Z,19.10
2018-06-30T00:41:20.577Z,19.10
2018-06-30T00:43:49.713Z,19.30
2018-06-30T00:46:18.892Z,19.00
2018-06-30T00:48:48.667Z,19.20
2018-06-30T00:51:24.578Z,19.00
2018-06-30T00:53:53.726Z,19.10
2018-06-30T00:56:22.894Z,18.90
2018-06-30T01:01:52.749Z,19.00
2018-06-30T01:04:21.905Z,19.10
2018-06-30T01:09:51.417Z,18.70
2018-06-30T01:12:20.556Z,18.30
2018-06-30T01:14:49.753Z,18.90
2018-06-30T01:17:19.300Z,18.70
2018-06-30T01:23:36.009Z,18.80
2018-06-30T01:26:05.446Z,19.00
2018-06-30T01:28:34.597Z,18.40
2018-06-30T01:31:04.120Z,18.10
2018-06-30T01:33:33.290Z,18.40
2018-06-30T01:36:02.453Z,18.30
2018-06-30T01:38:31.634Z,18.40
2018-06-30T01:43:52.542Z,18.20
2018-06-30T01:46:25.758Z,17.80
2018-06-30T01:48:54.977Z,18.10
2018-06-30T01:51:24.126Z,18.20
2018-06-30T01:53:53.269Z,18.40
2018-06-30T01:56:22.466Z,18.40
2018-06-30T02:04:52.346Z,18.30
2018-06-30T02:07:24.889Z,18.20
2018-06-30T02:09:54.087Z,17.70
2018-06-30T02:12:23.228Z,17.30
2018-06-30T02:14:52.426Z,17.70
2018-06-30T02:17:21.728Z,17.90
2018-06-30T02:19:50.965Z,17.40
2018-06-30T02:22:26.490Z,16.70
2018-06-30T02:24:55.643Z,16.50
2018-06-30T02:27:24.794Z,16.80
2018-06-30T02:30:23.350Z,16.80
2018-06-30T02:32:52.513Z,16.60
2018-06-30T02:35:21.653Z,16.30
2018-06-30T02:37:50.862Z,16.00
2018-06-30T02:40:20.041Z,15.60
2018-06-30T02:45:50.238Z,15.90
2018-06-30T02:48:19.360Z,15.60
2018-06-30T02:50:48.503Z,15.40
2018-06-30T02:53:17.706Z,15.50
2018-06-30T02:55:46.948Z,15.20
2018-06-30T02:58:24.500Z,14.90
2018-06-30T03:00:54.309Z,14.90
2018-06-30T03:03:23.720Z,14.40
2018-06-30T03:06:22.498Z,14.70
2018-06-30T03:08:51.646Z,15.30
2018-06-30T03:11:27.237Z,15.50
2018-06-30T03:13:56.573Z,15.70
2018-06-30T03:16:25.736Z,14.30
2018-06-30T03:18:54.954Z,14.20
2018-06-30T03:21:24.141Z,14.40
2018-06-30T03:23:53.354Z,14.40
2018-06-30T03:26:25.610Z,14.10
2018-06-30T03:28:54.781Z,14.00
2018-06-30T03:31:24.024Z,14.70
2018-06-30T03:34:22.299Z,14.40
2018-06-30T03:36:51.521Z,13.80
2018-06-30T03:39:27.192Z,13.80
2018-06-30T03:41:56.341Z,14.30
2018-06-30T03:44:25.510Z,14.70
2018-06-30T03:46:54.676Z,14.70
2018-06-30T03:51:52.892Z,14.10
2018-06-30T03:54:22.183Z,14.20
2018-06-30T03:56:51.429Z,14.00
2018-06-30T03:59:20.593Z,14.20
2018-06-30T04:04:50.087Z,14.20
2018-06-30T04:07:25.321Z,14.60
2018-06-30T04:09:54.519Z,14.50
2018-06-30T04:12:23.966Z,14.00
2018-06-30T04:14:53.112Z,14.10
2018-06-30T04:17:22.297Z,14.40
2018-06-30T04:19:51.602Z,13.90
2018-06-30T04:22:27.011Z,14.20
2018-06-30T04:24:57.274Z,14.20
2018-06-30T04:27:26.448Z,14.50
2018-06-30T04:30:22.334Z,14.40
2018-06-30T04:32:51.476Z,14.40
2018-06-30T04:35:26.245Z,13.90
2018-06-30T04:37:55.535Z,14.30
2018-06-30T04:40:24.703Z,14.30
2018-06-30T04:45:22.790Z,14.90
2018-06-30T04:47:52.059Z,14.60
2018-06-30T04:50:27.201Z,14.60
2018-06-30T04:52:56.355Z,14.30
2018-06-30T04:55:25.519Z,14.60
2018-06-30T04:58:24.341Z,15.10
2018-06-30T05:00:53.606Z,14.80
2018-06-30T05:03:26.664Z,14.90
2018-06-30T05:05:55.983Z,14.60
2018-06-30T05:08:25.148Z,15.10
2018-06-30T05:10:54.378Z,15.00
2018-06-30T05:13:23.513Z,15.50
2018-06-30T05:15:52.730Z,15.00
2018-06-30T05:18:25.226Z,14.50
2018-06-30T05:20:54.527Z,14.90
2018-06-30T05:23:23.681Z,15.80
2018-06-30T05:25:52.880Z,15.40
2018-06-30T05:28:22.060Z,15.70
2018-06-30T05:30:51.202Z,15.00
2018-06-30T05:33:20.471Z,15.80
2018-06-30T05:35:49.633Z,15.90
2018-06-30T05:38:18.837Z,16.20
2018-06-30T05:40:48.297Z,16.00
2018-06-30T05:43:17.457Z,15.40
2018-06-30T05:48:46.618Z,15.10
2018-06-30T05:51:15.849Z,15.30
2018-06-30T05:53:45.030Z,15.90
2018-06-30T05:56:14.222Z,16.00
2018-06-30T05:58:43.374Z,15.00
2018-06-30T06:01:12.610Z,15.70
2018-06-30T06:03:41.806Z,16.20
2018-06-30T06:06:10.949Z,16.40
2018-06-30T06:08:40.128Z,16.00
2018-06-30T06:11:09.382Z,15.90
2018-06-30T06:16:39.193Z,16.10
2018-06-30T06:19:08.926Z,15.90
2018-06-30T06:21:38.320Z,16.40
2018-06-30T06:24:07.610Z,16.70
2018-06-30T06:26:36.753Z,16.60
2018-06-30T06:29:06.295Z,16.90
2018-06-30T06:31:35.501Z,17.00
2018-06-30T06:34:04.642Z,17.20
2018-06-30T06:36:33.839Z,17.30
2018-06-30T06:39:03.078Z,17.30
2018-06-30T06:41:32.323Z,16.20
2018-06-30T06:44:01.478Z,16.30
2018-06-30T06:46:30.674Z,16.00
2018-06-30T06:48:59.809Z,16.30
2018-06-30T06:51:28.951Z,16.30
2018-06-30T06:54:22.784Z,16.20
2018-06-30T06:56:52.082Z,16.40
2018-06-30T06:59:21.237Z,16.50
2018-06-30T07:01:50.578Z,16.60
2018-06-30T07:07:20.450Z,17.70
2018-06-30T07:09:49.655Z,16.60
2018-06-30T07:14:47.901Z,17.50
2018-06-30T07:17:17.248Z,17.60
2018-06-30T07:19:46.390Z,17.50
2018-06-30T07:22:25.455Z,17.10
2018-06-30T07:25:23.401Z,16.70
2018-06-30T07:27:52.650Z,16.90
2018-06-30T07:30:21.796Z,16.70
2018-06-30T07:32:50.945Z,17.30
2018-06-30T07:35:22.389Z,17.70
2018-06-30T07:37:51.571Z,17.80
2018-06-30T07:40:20.754Z,17.90
2018-06-30T07:42:49.913Z,17.50
2018-06-30T07:45:19.078Z,17.40
2018-06-30T07:50:17.445Z,18.30
2018-06-30T07:55:47.364Z,18.30
2018-06-30T07:58:16.569Z,17.70
2018-06-30T08:00:45.728Z,17.80
2018-06-30T08:03:24.658Z,18.40
2018-06-30T08:05:53.818Z,17.90
2018-06-30T08:08:23.065Z,17.80
2018-06-30T08:10:52.364Z,18.00
2018-06-30T08:13:21.520Z,18.20
2018-06-30T08:15:50.702Z,18.00
2018-06-30T08:18:19.926Z,18.20
2018-06-30T08:23:49.217Z,18.00
2018-06-30T08:26:18.474Z,18.50
2018-06-30T08:28:47.638Z,17.70
2018-06-30T08:31:26.503Z,17.60
2018-06-30T08:33:55.689Z,17.60
2018-06-30T08:36:24.926Z,17.80
2018-06-30T08:38:54.091Z,18.50
2018-06-30T08:41:23.233Z,18.60
2018-06-30T08:43:52.392Z,18.70
2018-06-30T08:46:21.573Z,18.90
2018-06-30T08:48:50.739Z,18.90
2018-06-30T08:51:19.885Z,19.10
2018-06-30T08:53:49.164Z,19.30
2018-06-30T08:56:24.934Z,19.30
2018-06-30T08:58:54.326Z,19.30
2018-06-30T09:01:23.692Z,19.30
2018-06-30T09:03:53.100Z,18.80
2018-06-30T09:06:22.628Z,19.30
2018-06-30T09:08:51.745Z,19.10
2018-06-30T09:11:20.899Z,19.40
2018-06-30T09:13:50.170Z,19.50
2018-06-30T09:18:48.352Z,19.40
2018-06-30T09:21:17.561Z,19.30
2018-06-30T09:26:47.681Z,19.40
2018-06-30T09:29:16.861Z,19.60
2018-06-30T09:31:46.038Z,19.30
2018-06-30T09:34:15.315Z,19.70
2018-06-30T09:36:44.457Z,18.90
2018-06-30T09:39:13.630Z,18.90
2018-06-30T09:41:42.877Z,19.00
2018-06-30T09:44:12.041Z,18.90
2018-06-30T09:46:41.180Z,18.70
2018-06-30T09:49:10.353Z,18.80
2018-06-30T09:51:39.707Z,18.90
2018-06-30T09:54:08.969Z,19.30
2018-06-30T09:56:38.219Z,19.30
2018-06-30T09:59:26.126Z,19.40
2018-06-30T10:01:55.365Z,19.40
2018-06-30T10:04:24.527Z,19.80
2018-06-30T10:07:23.075Z,20.10
2018-06-30T10:09:52.258Z,20.20
2018-06-30T10:12:22.294Z,20.40
2018-06-30T10:14:51.465Z,20.20
2018-06-30T10:17:20.634Z,20.20
2018-06-30T10:19:49.819Z,20.20
2018-06-30T10:22:19.097Z,20.40
2018-06-30T10:33:18.333Z,20.50
2018-06-30T10:35:47.478Z,20.40
2018-06-30T10:38:16.698Z,20.50
2018-06-30T10:40:45.855Z,20.80
2018-06-30T10:43:14.989Z,20.80
2018-06-30T10:45:44.237Z,20.90
2018-06-30T10:48:13.397Z,20.10
2018-06-30T10:50:42.566Z,20.40
2018-06-30T10:53:24.511Z,20.40
2018-06-30T10:55:53.669Z,20.50
2018-06-30T10:58:22.832Z,20.60
2018-06-30T11:00:52.132Z,20.40
2018-06-30T11:03:25.239Z,20.60
2018-06-30T11:05:54.467Z,20.80
2018-06-30T11:08:23.634Z,20.90
2018-06-30T11:10:52.885Z,20.90
2018-06-30T11:13:22.104Z,20.90
2018-06-30T11:18:20.202Z,21.00
2018-06-30T11:26:49.799Z,20.90
2018-06-30T11:29:18.985Z,21.10
2018-06-30T11:31:48.447Z,21.20
2018-06-30T11:34:17.815Z,21.20
2018-06-30T11:36:46.958Z,21.20
2018-06-30T11:39:16.107Z,21.10
2018-06-30T11:41:45.302Z,20.50
2018-06-30T11:44:14.654Z,20.70
2018-06-30T11:46:43.929Z,21.10
2018-06-30T11:51:54.569Z,20.80
2018-06-30T11:54:23.943Z,20.50
2018-06-30T11:56:53.141Z,21.10
2018-06-30T11:59:22.305Z,21.30
2018-06-30T12:01:51.638Z,21.20
2018-06-30T12:04:26.645Z,21.00
2018-06-30T12:06:55.863Z,21.20
2018-06-30T12:09:25.103Z,21.20
2018-06-30T12:11:54.357Z,21.10
2018-06-30T12:14:23.529Z,21.30
2018-06-30T12:16:52.709Z,21.10
2018-06-30T12:19:21.913Z,20.90
2018-06-30T12:21:51.050Z,20.70
2018-06-30T12:24:20.251Z,20.80
2018-06-30T12:30:07.048Z,21.00
2018-06-30T12:35:05.853Z,20.60
2018-06-30T12:40:04.064Z,20.40
2018-06-30T12:42:33.304Z,20.30
2018-06-30T12:45:02.628Z,20.80
2018-06-30T12:47:31.878Z,21.10
2018-06-30T12:50:01.173Z,21.00
2018-06-30T12:52:30.331Z,20.70
2018-06-30T12:54:59.540Z,20.60
2018-06-30T12:57:28.709Z,21.30
2018-06-30T12:59:57.850Z,21.20
2018-06-30T13:02:27.067Z,21.30
2018-06-30T13:04:56.214Z,21.50
2018-06-30T13:12:24.277Z,21.40
2018-06-30T13:14:53.417Z,21.70
2018-06-30T13:17:22.598Z,21.40
2018-06-30T13:19:51.765Z,20.80
2018-06-30T13:22:20.976Z,21.20
2018-06-30T13:24:50.156Z,20.70
2018-06-30T13:27:19.325Z,21.30
2018-06-30T13:32:49.190Z,20.90
2018-06-30T13:35:18.373Z,21.20
2018-06-30T13:37:47.640Z,21.20
2018-06-30T13:40:17.071Z,21.70
2018-06-30T13:42:46.280Z,21.00
2018-06-30T13:45:15.470Z,20.90
2018-06-30T13:47:44.661Z,21.30
2018-06-30T13:50:25.998Z,21.00
2018-06-30T13:55:24.257Z,21.40
2018-06-30T13:58:24.753Z,21.40
2018-06-30T14:00:53.972Z,21.70
2018-06-30T14:03:23.343Z,21.80
2018-06-30T14:05:52.570Z,21.20
2018-06-30T14:08:21.718Z,21.70
2018-06-30T14:10:50.896Z,21.70
2018-06-30T14:13:20.177Z,21.40
2018-06-30T14:15:49.329Z,21.50
2018-06-30T14:18:25.467Z,21.00
2018-06-30T14:20:54.603Z,21.20
2018-06-30T14:23:23.793Z,21.40
2018-06-30T14:25:52.982Z,21.70
2018-06-30T14:28:22.133Z,21.80
2018-06-30T14:33:20.896Z,21.70
2018-06-30T14:35:50.062Z,21.70
2018-06-30T14:38:19.297Z,21.30
2018-06-30T14:43:33.177Z,21.40
2018-06-30T14:46:23.519Z,21.60
2018-06-30T14:48:52.848Z,21.70
2018-06-30T14:51:22.021Z,21.60
2018-06-30T14:53:51.303Z,21.40
2018-06-30T14:56:20.453Z,21.80
2018-06-30T14:58:49.625Z,21.90
2018-06-30T15:01:18.828Z,21.50
2018-06-30T15:03:48.053Z,22.20
2018-06-30T15:06:24.937Z,22.10
2018-06-30T15:09:22.850Z,21.50
2018-06-30T15:11:52.356Z,21.50
2018-06-30T15:14:21.533Z,22.00
2018-06-30T15:16:50.750Z,21.80
2018-06-30T15:19:20.033Z,21.70
2018-06-30T15:21:49.201Z,21.90
2018-06-30T15:24:19.082Z,22.00
2018-06-30T15:26:48.389Z,21.90
2018-06-30T15:29:17.610Z,22.00
2018-06-30T15:31:46.753Z,22.10
2018-06-30T15:37:23.018Z,22.20
2018-06-30T15:39:52.234Z,22.20
2018-06-30T15:42:21.410Z,22.10
2018-06-30T15:44:50.629Z,22.10
2018-06-30T15:47:19.861Z,22.10
2018-06-30T15:49:49.023Z,22.00
2018-06-30T15:52:18.253Z,21.90
2018-06-30T15:54:47.557Z,21.90
2018-06-30T15:57:16.713Z,21.80
2018-06-30T15:59:45.950Z,21.40
2018-06-30T16:02:24.861Z,21.50
2018-06-30T16:04:54.081Z,21.90
2018-06-30T16:07:23.264Z,22.00
2018-06-30T16:09:52.681Z,21.70
2018-06-30T16:12:21.844Z,21.80
2018-06-30T16:14:51.005Z,22.40
2018-06-30T16:17:20.209Z,22.40
2018-06-30T16:19:49.481Z,22.10
2018-06-30T16:22:18.673Z,22.00
2018-06-30T16:24:47.847Z,22.00
2018-06-30T16:27:17.086Z,22.00
2018-06-30T16:32:46.982Z,21.60
2018-06-30T16:35:16.498Z,21.80
2018-06-30T16:37:45.665Z,21.80
2018-06-30T16:40:14.849Z,21.70
2018-06-30T16:42:44.037Z,21.70
2018-06-30T16:50:42.899Z,21.80
2018-06-30T16:53:12.077Z,21.70
2018-06-30T16:55:41.291Z,21.70
2018-06-30T16:58:24.769Z,21.80
2018-06-30T17:00:53.945Z,21.70
2018-06-30T17:03:23.286Z,21.60
2018-06-30T17:08:21.545Z,21.60
2018-06-30T17:10:50.785Z,21.70
2018-06-30T17:13:19.989Z,21.60
2018-06-30T17:21:43.275Z,21.70
2018-06-30T17:24:12.450Z,21.60
2018-06-30T17:26:41.899Z,21.60
2018-06-30T17:29:11.008Z,21.50
2018-06-30T17:31:40.154Z,21.50
2018-06-30T17:36:38.394Z,21.30
2018-06-30T17:39:09.609Z,21.40
2018-06-30T17:41:39.412Z,21.50
2018-06-30T17:44:24.941Z,21.70
2018-06-30T17:47:23.513Z,21.60
2018-06-30T17:49:53.002Z,21.30
2018-06-30T17:52:22.501Z,21.40
2018-06-30T17:54:51.681Z,21.60
2018-06-30T17:57:20.862Z,21.50
2018-06-30T17:59:50.043Z,21.50
2018-06-30T18:02:19.248Z,21.50
2018-06-30T18:04:48.515Z,21.70
2018-06-30T18:07:26.375Z,21.90
2018-06-30T18:09:55.665Z,22.00
2018-06-30T18:12:25.861Z,22.40
2018-06-30T18:15:43.353Z,22.50
2018-06-30T18:18:12.600Z,22.10
2018-06-30T18:20:41.753Z,22.00
2018-06-30T18:23:10.994Z,21.90
2018-06-30T18:25:40.138Z,21.80
2018-06-30T18:28:25.589Z,21.70
2018-06-30T18:33:23.650Z,21.30
2018-06-30T18:38:53.110Z,21.60
2018-06-30T18:41:22.265Z,21.50
2018-06-30T18:43:51.444Z,21.50
2018-06-30T18:46:20.670Z,21.30
2018-06-30T18:48:49.843Z,21.40
2018-06-30T18:51:18.986Z,21.40
2018-06-30T18:53:48.170Z,21.20
2018-06-30T18:56:17.338Z,21.20
2018-06-30T18:58:46.501Z,21.30
2018-06-30T19:01:15.815Z,21.20
2018-06-30T19:06:45.389Z,21.20
2018-06-30T19:09:14.644Z,21.10
2018-06-30T19:11:43.792Z,21.10
2018-06-30T19:14:13.027Z,21.10
2018-06-30T19:16:42.190Z,21.10
2018-06-30T19:19:11.357Z,21.00
2018-06-30T19:21:40.596Z,21.00
2018-06-30T19:24:09.790Z,20.90
2018-06-30T19:26:38.978Z,20.90
2018-06-30T19:29:08.266Z,20.90
2018-06-30T19:32:57.943Z,20.80
2018-06-30T19:35:27.482Z,20.80
2018-06-30T19:37:56.993Z,20.80
2018-06-30T19:40:26.461Z,20.70
2018-06-30T19:42:55.628Z,20.70
2018-06-30T19:45:24.786Z,20.60
2018-06-30T19:47:54.031Z,20.40
2018-06-30T19:50:23.206Z,20.50
2018-06-30T19:52:52.600Z,20.40
2018-06-30T19:55:21.905Z,20.00
2018-06-30T19:57:51.058Z,20.10
2018-06-30T20:00:26.796Z,20.20
2018-06-30T20:02:55.934Z,20.20
2018-06-30T20:05:25.090Z,19.80
2018-06-30T20:07:55.477Z,19.70
2018-06-30T20:10:25.550Z,19.80
2018-06-30T20:12:54.762Z,19.90
2018-06-30T20:15:23.962Z,19.80
2018-06-30T20:17:53.127Z,19.90
2018-06-30T20:20:22.406Z,19.40
2018-06-30T20:22:51.569Z,19.60
2018-06-30T20:25:20.854Z,19.70
2018-06-30T20:27:50.274Z,19.60
2018-06-30T20:30:19.469Z,19.60
2018-06-30T20:32:48.718Z,19.70
2018-06-30T20:35:25.007Z,19.40
2018-06-30T20:37:54.278Z,19.50
2018-06-30T20:40:23.430Z,19.60
2018-06-30T20:42:53.016Z,19.50
2018-06-30T20:45:22.314Z,19.60
2018-06-30T20:47:51.538Z,19.50
2018-06-30T20:50:27.150Z,19.50
2018-06-30T20:52:56.331Z,19.50
2018-06-30T20:55:25.533Z,19.50
2018-06-30T20:57:54.721Z,19.50
2018-06-30T21:00:27.246Z,19.40
2018-06-30T21:02:56.497Z,19.40
2018-06-30T21:05:25.667Z,19.30
2018-06-30T21:07:54.884Z,19.00
2018-06-30T21:10:25.889Z,19.20
2018-06-30T21:12:55.048Z,19.20
2018-06-30T21:15:24.234Z,19.20
2018-06-30T21:18:22.869Z,19.20
2018-06-30T21:20:52.040Z,19.20
2018-06-30T21:23:23.553Z,19.10
2018-06-30T21:25:52.731Z,19.10
2018-06-30T21:28:21.932Z,19.10
2018-06-30T21:30:52.277Z,19.10
2018-06-30T21:33:21.477Z,19.00
2018-06-30T21:35:50.666Z,19.10
2018-06-30T21:38:25.537Z,18.90
2018-06-30T21:40:54.742Z,18.90
2018-06-30T21:43:24.077Z,19.00
2018-06-30T21:45:53.297Z,18.90
2018-06-30T21:48:27.088Z,19.00
2018-06-30T21:50:56.272Z,18.90
2018-06-30T21:53:25.446Z,18.90
2018-06-30T21:55:54.606Z,18.90
2018-06-30T21:58:23.777Z,18.80
2018-06-30T22:00:58.352Z,18.80
2018-06-30T22:03:28.385Z,18.80
2018-06-30T22:05:58.578Z,18.80
2018-06-30T22:08:27.790Z,18.80
2018-06-30T22:10:57.083Z,18.70
2018-06-30T22:13:26.165Z,18.70
2018-06-30T22:15:55.331Z,18.70
2018-06-30T22:18:24.629Z,18.70
2018-06-30T22:20:53.749Z,18.70
2018-06-30T22:23:27.269Z,18.60
2018-06-30T22:25:56.416Z,18.70
2018-06-30T22:28:25.570Z,18.60
2018-06-30T22:30:54.796Z,18.60
2018-06-30T22:33:23.942Z,18.60
2018-06-30T22:35:53.106Z,18.60
2018-06-30T22:38:22.305Z,18.50
2018-06-30T22:40:51.474Z,18.50
2018-06-30T22:43:20.625Z,18.50
2018-06-30T22:48:50.310Z,18.40
2018-06-30T22:51:25.513Z,18.40
2018-06-30T22:53:54.684Z,18.40
2018-06-30T22:56:23.829Z,18.40
2018-06-30T22:58:53.067Z,18.30
2018-06-30T23:01:22.410Z,18.30
2018-06-30T23:03:51.728Z,18.30
2018-06-30T23:06:27.253Z,18.20
2018-06-30T23:08:56.421Z,18.20
2018-06-30T23:11:25.552Z,18.20
2018-06-30T23:14:24.130Z,18.20
2018-06-30T23:16:53.325Z,18.20
2018-06-30T23:19:22.623Z,18.10
2018-06-30T23:21:51.802Z,18.10
2018-06-30T23:24:20.945Z,18.10
2018-06-30T23:26:50.093Z,18.00
2018-06-30T23:29:19.301Z,18.10
2018-06-30T23:31:48.458Z,18.00
2018-06-30T23:34:17.595Z,18.00
2018-06-30T23:36:47.050Z,18.00
2018-06-30T23:39:16.197Z,17.90
2018-06-30T23:41:45.348Z,17.90
2018-06-30T23:46:43.476Z,17.90
2018-06-30T23:49:25.924Z,17.80
2018-06-30T23:51:55.066Z,17.80
2018-06-30T23:54:24.233Z,17.80
2018-06-30T23:56:53.418Z,17.80
2018-06-30T23:59:22.606Z,17.80
